sensor_id;sensor_type;location;lat;lon;timestamp;pressure;altitude;pressure_sealevel;temperature;humidity
41383;BME280;27971;53.902;9.118;2022-10-19T00:01:01;102797.0;;;18.58;29.66
41383;BME280;27971;53.902;9.118;2022-10-19T00:02:58;102802.0;;;18.56;29.74
41383;BME280;27971;53.902;9.118;2022-10-19T00:05:00;102803.0;;;18.62;29.68
41383;BME280;27971;53.902;9.118;2022-10-19T00:07:02;102801.0;;;19.7;29.73
41383;BME280;27971;53.902;9.118;2022-10-19T00:09:07;102805.0;;;22.35;30.33
41383;BME280;27971;53.902;9.118;2022-10-19T00:11:08;102810.99999999999;;;22.02;31.49
41383;BME280;27971;53.902;9.118;2022-10-19T00:13:11;102814.00000000001;;;21.81;32.15
41383;BME280;27971;53.902;9.118;2022-10-19T00:15:14;102819.0;;;21.7;32.63
41383;BME280;27971;53.902;9.118;2022-10-19T00:17:17;102821.0;;;21.52;32.99
41383;BME280;27971;53.902;9.118;2022-10-19T00:19:24;102822.0;;;21.34;33.29
41383;BME280;27971;53.902;9.118;2022-10-19T00:21:22;102823.0;;;21.31;33.5
41383;BME280;27971;53.902;9.118;2022-10-19T00:23:25;102827.0;;;21.32;33.54
41383;BME280;27971;53.902;9.118;2022-10-19T00:25:27;102831.0;;;21.12;33.89
41383;BME280;27971;53.902;9.118;2022-10-19T00:27:30;102829.0;;;21.08;33.9
41383;BME280;27971;53.902;9.118;2022-10-19T00:29:33;102830.0;;;21.07;33.92
41383;BME280;27971;53.902;9.118;2022-10-19T00:31:35;102831.0;;;21.07;33.91
41383;BME280;27971;53.902;9.118;2022-10-19T00:33:38;102832.0;;;21.04;34.0
41383;BME280;27971;53.902;9.118;2022-10-19T00:35:40;102832.0;;;21.03;33.96
41383;BME280;27971;53.902;9.118;2022-10-19T00:37:43;102835.99999999999;;;20.96;34.04
41383;BME280;27971;53.902;9.118;2022-10-19T00:39:45;102839.00000000001;;;21.0;34.03
41383;BME280;27971;53.902;9.118;2022-10-19T00:41:48;102839.00000000001;;;21.01;34.07
41383;BME280;27971;53.902;9.118;2022-10-19T00:43:53;102839.00000000001;;;21.03;34.09
41383;BME280;27971;53.902;9.118;2022-10-19T00:45:53;102841.00000000001;;;20.95;34.2
41383;BME280;27971;53.902;9.118;2022-10-19T00:47:55;102843.0;;;20.85;34.27
41383;BME280;27971;53.902;9.118;2022-10-19T00:49:58;102846.0;;;20.91;34.25
41383;BME280;27971;53.902;9.118;2022-10-19T00:52:03;102850.0;;;20.94;34.2
41383;BME280;27971;53.902;9.118;2022-10-19T00:54:05;102851.0;;;20.95;34.26
41383;BME280;27971;53.902;9.118;2022-10-19T00:56:13;102851.0;;;21.16;34.08
41383;BME280;27971;53.902;9.118;2022-10-19T00:58:09;102852.0;;;21.21;34.09
41383;BME280;27971;53.902;9.118;2022-10-19T01:00:12;102853.0;;;21.09;34.18
41383;BME280;27971;53.902;9.118;2022-10-19T01:02:14;102851.0;;;21.06;34.17
41383;BME280;27971;53.902;9.118;2022-10-19T01:04:17;102848.0;;;21.18;33.98
41383;BME280;27971;53.902;9.118;2022-10-19T01:06:20;102848.0;;;21.15;34.03
41383;BME280;27971;53.902;9.118;2022-10-19T01:08:23;102848.0;;;21.13;34.08
41383;BME280;27971;53.902;9.118;2022-10-19T01:10:41;102848.0;;;21.07;34.12
41383;BME280;27971;53.902;9.118;2022-10-19T01:12:46;102847.0;;;21.28;34.08
41383;BME280;27971;53.902;9.118;2022-10-19T01:14:39;102850.0;;;21.29;34.13
41383;BME280;27971;53.902;9.118;2022-10-19T01:16:43;102853.0;;;21.12;34.28
41383;BME280;27971;53.902;9.118;2022-10-19T01:18:43;102855.0;;;21.2;34.18
41383;BME280;27971;53.902;9.118;2022-10-19T01:21:02;102853.0;;;21.12;34.2
41383;BME280;27971;53.902;9.118;2022-10-19T01:22:54;102848.0;;;21.27;34.24
41383;BME280;27971;53.902;9.118;2022-10-19T01:24:55;102846.0;;;20.88;34.58
41383;BME280;27971;53.902;9.118;2022-10-19T01:27:12;102850.0;;;21.1;34.35
41383;BME280;27971;53.902;9.118;2022-10-19T01:28:58;102851.0;;;21.18;34.33
41383;BME280;27971;53.902;9.118;2022-10-19T01:30:58;102850.0;;;21.24;34.16
41383;BME280;27971;53.902;9.118;2022-10-19T01:33:03;102849.0;;;20.87;34.43
41383;BME280;27971;53.902;9.118;2022-10-19T01:35:06;102848.0;;;20.8;34.58
41383;BME280;27971;53.902;9.118;2022-10-19T01:37:09;102848.0;;;20.75;34.62
41383;BME280;27971;53.902;9.118;2022-10-19T01:39:09;102848.0;;;20.87;34.6
41383;BME280;27971;53.902;9.118;2022-10-19T01:41:14;102850.0;;;20.73;34.65
41383;BME280;27971;53.902;9.118;2022-10-19T01:43:18;102855.0;;;20.83;34.54
41383;BME280;27971;53.902;9.118;2022-10-19T01:45:17;102856.0;;;21.01;34.4
41383;BME280;27971;53.902;9.118;2022-10-19T01:47:21;102854.0;;;21.02;34.37
41383;BME280;27971;53.902;9.118;2022-10-19T01:49:27;102853.0;;;20.99;34.37
41383;BME280;27971;53.902;9.118;2022-10-19T01:51:27;102852.0;;;21.01;34.37
41383;BME280;27971;53.902;9.118;2022-10-19T01:53:26;102849.0;;;20.82;34.55
41383;BME280;27971;53.902;9.118;2022-10-19T01:55:27;102850.0;;;20.89;34.45
41383;BME280;27971;53.902;9.118;2022-10-19T01:57:33;102853.0;;;20.95;34.39
41383;BME280;27971;53.902;9.118;2022-10-19T01:59:35;102852.0;;;20.94;34.39
41383;BME280;27971;53.902;9.118;2022-10-19T02:01:40;102851.0;;;20.97;34.35
41383;BME280;27971;53.902;9.118;2022-10-19T02:03:41;102850.0;;;20.94;34.4
41383;BME280;27971;53.902;9.118;2022-10-19T02:05:44;102849.0;;;21.0;34.3
41383;BME280;27971;53.902;9.118;2022-10-19T02:07:50;102847.0;;;21.01;34.29
41383;BME280;27971;53.902;9.118;2022-10-19T02:09:49;102846.0;;;21.03;34.31
41383;BME280;27971;53.902;9.118;2022-10-19T02:11:54;102844.0;;;20.95;34.36
41383;BME280;27971;53.902;9.118;2022-10-19T02:13:58;102844.0;;;21.03;34.29
41383;BME280;27971;53.902;9.118;2022-10-19T02:16:00;102847.0;;;21.16;34.14
41383;BME280;27971;53.902;9.118;2022-10-19T02:18:00;102849.0;;;21.21;34.09
41383;BME280;27971;53.902;9.118;2022-10-19T02:20:03;102848.0;;;21.18;34.06
41383;BME280;27971;53.902;9.118;2022-10-19T02:22:05;102841.00000000001;;;20.94;34.25
41383;BME280;27971;53.902;9.118;2022-10-19T02:24:07;102836.99999999999;;;20.53;34.66
41383;BME280;27971;53.902;9.118;2022-10-19T02:26:09;102840.00000000001;;;21.39;33.73
41383;BME280;27971;53.902;9.118;2022-10-19T02:28:12;102840.00000000001;;;21.57;33.56
41383;BME280;27971;53.902;9.118;2022-10-19T02:30:16;102843.0;;;21.54;33.56
41383;BME280;27971;53.902;9.118;2022-10-19T02:32:17;102845.0;;;21.39;33.68
41383;BME280;27971;53.902;9.118;2022-10-19T02:34:20;102843.0;;;21.49;33.63
41383;BME280;27971;53.902;9.118;2022-10-19T02:36:23;102842.0;;;21.5;33.62
41383;BME280;27971;53.902;9.118;2022-10-19T02:38:25;102844.0;;;21.18;33.9
41383;BME280;27971;53.902;9.118;2022-10-19T02:40:31;102845.0;;;21.35;33.83
41383;BME280;27971;53.902;9.118;2022-10-19T02:42:34;102844.0;;;21.35;33.89
41383;BME280;27971;53.902;9.118;2022-10-19T02:44:40;102842.0;;;21.47;33.78
41383;BME280;27971;53.902;9.118;2022-10-19T02:46:41;102846.0;;;21.35;33.88
41383;BME280;27971;53.902;9.118;2022-10-19T02:48:40;102850.0;;;21.31;33.98
41383;BME280;27971;53.902;9.118;2022-10-19T02:50:43;102852.0;;;21.28;33.95
41383;BME280;27971;53.902;9.118;2022-10-19T02:52:46;102856.0;;;21.22;34.02
41383;BME280;27971;53.902;9.118;2022-10-19T02:54:48;102855.0;;;21.17;34.1
41383;BME280;27971;53.902;9.118;2022-10-19T02:56:51;102855.0;;;21.03;34.16
41383;BME280;27971;53.902;9.118;2022-10-19T02:58:53;102858.0;;;20.98;34.25
41383;BME280;27971;53.902;9.118;2022-10-19T03:00:56;102859.99999999999;;;21.16;34.06
41383;BME280;27971;53.902;9.118;2022-10-19T03:02:58;102860.99999999999;;;21.06;34.1
41383;BME280;27971;53.902;9.118;2022-10-19T03:05:01;102861.99999999999;;;21.17;33.98
41383;BME280;27971;53.902;9.118;2022-10-19T03:07:04;102861.99999999999;;;21.2;33.96
41383;BME280;27971;53.902;9.118;2022-10-19T03:09:07;102861.99999999999;;;21.31;33.85
41383;BME280;27971;53.902;9.118;2022-10-19T03:11:09;102861.99999999999;;;21.3;33.85
41383;BME280;27971;53.902;9.118;2022-10-19T03:13:12;102861.99999999999;;;21.17;33.95
41383;BME280;27971;53.902;9.118;2022-10-19T03:15:14;102860.99999999999;;;21.02;34.22
41383;BME280;27971;53.902;9.118;2022-10-19T03:17:17;102863.00000000001;;;21.08;34.11
41383;BME280;27971;53.902;9.118;2022-10-19T03:19:20;102864.00000000001;;;21.06;34.08
41383;BME280;27971;53.902;9.118;2022-10-19T03:21:22;102865.00000000001;;;21.12;34.03
41383;BME280;27971;53.902;9.118;2022-10-19T03:23:24;102866.00000000001;;;21.07;34.06
41383;BME280;27971;53.902;9.118;2022-10-19T03:25:27;102868.0;;;21.12;33.99
41383;BME280;27971;53.902;9.118;2022-10-19T03:27:29;102869.0;;;21.0;33.99
41383;BME280;27971;53.902;9.118;2022-10-19T03:29:32;102869.0;;;21.0;34.03
41383;BME280;27971;53.902;9.118;2022-10-19T03:31:35;102870.0;;;20.96;34.17
41383;BME280;27971;53.902;9.118;2022-10-19T03:33:37;102869.0;;;20.86;34.25
41383;BME280;27971;53.902;9.118;2022-10-19T03:35:39;102866.00000000001;;;20.91;34.17
41383;BME280;27971;53.902;9.118;2022-10-19T03:37:42;102866.00000000001;;;20.98;34.11
41383;BME280;27971;53.902;9.118;2022-10-19T03:39:44;102871.0;;;21.03;34.03
41383;BME280;27971;53.902;9.118;2022-10-19T03:41:47;102875.0;;;21.1;33.98
41383;BME280;27971;53.902;9.118;2022-10-19T03:43:50;102877.0;;;21.0;34.0
41383;BME280;27971;53.902;9.118;2022-10-19T03:45:52;102877.0;;;21.02;34.09
41383;BME280;27971;53.902;9.118;2022-10-19T03:47:55;102875.0;;;20.99;34.11
41383;BME280;27971;53.902;9.118;2022-10-19T03:49:57;102872.0;;;20.85;34.18
41383;BME280;27971;53.902;9.118;2022-10-19T03:51:59;102871.0;;;20.9;34.16
41383;BME280;27971;53.902;9.118;2022-10-19T03:54:03;102872.0;;;21.0;34.1
41383;BME280;27971;53.902;9.118;2022-10-19T03:56:07;102872.0;;;20.99;34.13
41383;BME280;27971;53.902;9.118;2022-10-19T03:58:08;102872.0;;;20.99;34.16
41383;BME280;27971;53.902;9.118;2022-10-19T04:00:11;102874.0;;;21.14;33.95
41383;BME280;27971;53.902;9.118;2022-10-19T04:02:13;102877.0;;;21.19;33.89
41383;BME280;27971;53.902;9.118;2022-10-19T04:04:17;102882.0;;;21.04;34.03
41383;BME280;27971;53.902;9.118;2022-10-19T04:06:18;102883.99999999999;;;20.95;34.08
41383;BME280;27971;53.902;9.118;2022-10-19T04:08:21;102883.99999999999;;;20.99;34.03
41383;BME280;27971;53.902;9.118;2022-10-19T04:10:23;102884.99999999999;;;21.0;33.94
41383;BME280;27971;53.902;9.118;2022-10-19T04:12:26;102888.00000000001;;;21.02;33.98
41383;BME280;27971;53.902;9.118;2022-10-19T04:14:29;102890.00000000001;;;20.74;33.97
41383;BME280;27971;53.902;9.118;2022-10-19T04:16:32;102890.00000000001;;;20.96;33.95
41383;BME280;27971;53.902;9.118;2022-10-19T04:18:34;102896.0;;;20.97;33.97
41383;BME280;27971;53.902;9.118;2022-10-19T04:20:37;102899.0;;;20.8;34.05
41383;BME280;27971;53.902;9.118;2022-10-19T04:22:39;102897.0;;;20.8;34.09
41383;BME280;27971;53.902;9.118;2022-10-19T04:24:42;102895.0;;;20.92;34.02
41383;BME280;27971;53.902;9.118;2022-10-19T04:26:47;102896.0;;;20.88;34.01
41383;BME280;27971;53.902;9.118;2022-10-19T04:28:47;102899.0;;;21.0;34.01
41383;BME280;27971;53.902;9.118;2022-10-19T04:30:50;102899.0;;;20.91;34.01
41383;BME280;27971;53.902;9.118;2022-10-19T04:32:52;102903.0;;;20.96;33.96
41383;BME280;27971;53.902;9.118;2022-10-19T04:34:55;102903.0;;;21.14;33.8
41383;BME280;27971;53.902;9.118;2022-10-19T04:36:57;102904.0;;;21.22;33.76
41383;BME280;27971;53.902;9.118;2022-10-19T04:38:59;102908.0;;;21.06;33.91
41383;BME280;27971;53.902;9.118;2022-10-19T04:41:03;102910.99999999999;;;20.8;34.1
41383;BME280;27971;53.902;9.118;2022-10-19T04:43:05;102913.00000000001;;;20.96;34.01
41383;BME280;27971;53.902;9.118;2022-10-19T04:45:08;102913.00000000001;;;20.93;34.07
41383;BME280;27971;53.902;9.118;2022-10-19T04:47:09;102911.99999999999;;;20.95;34.0
41383;BME280;27971;53.902;9.118;2022-10-19T04:49:12;102908.0;;;20.93;34.04
41383;BME280;27971;53.902;9.118;2022-10-19T04:51:16;102907.0;;;20.86;34.12
41383;BME280;27971;53.902;9.118;2022-10-19T04:53:17;102908.99999999999;;;20.94;34.04
41383;BME280;27971;53.902;9.118;2022-10-19T04:55:20;102909.99999999999;;;20.95;34.07
41383;BME280;27971;53.902;9.118;2022-10-19T04:57:22;102911.99999999999;;;20.93;34.02
41383;BME280;27971;53.902;9.118;2022-10-19T04:59:25;102911.99999999999;;;20.67;34.19
41383;BME280;27971;53.902;9.118;2022-10-19T05:01:30;102911.99999999999;;;20.87;34.0
41383;BME280;27971;53.902;9.118;2022-10-19T05:03:30;102910.99999999999;;;21.23;33.47
41383;BME280;27971;53.902;9.118;2022-10-19T05:05:33;102911.99999999999;;;21.04;33.65
41383;BME280;27971;53.902;9.118;2022-10-19T05:07:36;102911.99999999999;;;20.93;33.61
41383;BME280;27971;53.902;9.118;2022-10-19T05:09:38;102913.00000000001;;;21.03;33.34
41383;BME280;27971;53.902;9.118;2022-10-19T05:11:41;102910.99999999999;;;21.16;33.1
41383;BME280;27971;53.902;9.118;2022-10-19T05:13:45;102908.99999999999;;;21.46;32.67
41383;BME280;27971;53.902;9.118;2022-10-19T05:15:54;102908.0;;;20.87;33.17
41383;BME280;27971;53.902;9.118;2022-10-19T05:17:49;102906.0;;;20.67;33.28
41383;BME280;27971;53.902;9.118;2022-10-19T05:19:52;102905.0;;;19.62;34.19
41383;BME280;27971;53.902;9.118;2022-10-19T05:21:54;102904.0;;;19.2;34.43
41383;BME280;27971;53.902;9.118;2022-10-19T05:23:58;102905.0;;;19.01;34.53
41383;BME280;27971;53.902;9.118;2022-10-19T05:26:01;102905.0;;;19.63;33.8
41383;BME280;27971;53.902;9.118;2022-10-19T05:28:03;102905.0;;;19.55;33.78
41383;BME280;27971;53.902;9.118;2022-10-19T05:30:07;102904.0;;;19.01;34.27
41383;BME280;27971;53.902;9.118;2022-10-19T05:32:08;102904.0;;;19.33;33.77
41383;BME280;27971;53.902;9.118;2022-10-19T05:34:11;102903.0;;;19.85;33.02
41383;BME280;27971;53.902;9.118;2022-10-19T05:36:16;102901.0;;;19.77;33.0
41383;BME280;27971;53.902;9.118;2022-10-19T05:38:16;102901.0;;;19.85;32.89
41383;BME280;27971;53.902;9.118;2022-10-19T05:40:19;102899.0;;;19.9;32.66
41383;BME280;27971;53.902;9.118;2022-10-19T05:42:21;102897.0;;;20.23;32.34
41383;BME280;27971;53.902;9.118;2022-10-19T05:44:24;102893.0;;;20.48;32.01
41383;BME280;27971;53.902;9.118;2022-10-19T05:46:28;102895.0;;;20.93;31.62
41383;BME280;27971;53.902;9.118;2022-10-19T05:48:29;102897.0;;;20.8;31.67
41383;BME280;27971;53.902;9.118;2022-10-19T05:50:32;102895.0;;;21.05;31.34
41383;BME280;27971;53.902;9.118;2022-10-19T05:52:35;102892.0;;;21.14;31.17
41383;BME280;27971;53.902;9.118;2022-10-19T05:54:38;102893.0;;;21.9;30.44
41383;BME280;27971;53.902;9.118;2022-10-19T05:56:41;102891.00000000001;;;22.78;29.59
41383;BME280;27971;53.902;9.118;2022-10-19T05:58:42;102889.00000000001;;;22.27;29.91
41383;BME280;27971;53.902;9.118;2022-10-19T06:00:50;102889.00000000001;;;22.45;29.79
41383;BME280;27971;53.902;9.118;2022-10-19T06:02:48;102888.00000000001;;;23.27;29.05
41383;BME280;27971;53.902;9.118;2022-10-19T06:04:51;102889.00000000001;;;23.2;29.0
41383;BME280;27971;53.902;9.118;2022-10-19T06:06:53;102888.00000000001;;;23.44;28.77
41383;BME280;27971;53.902;9.118;2022-10-19T06:08:56;102891.00000000001;;;22.27;29.8
41383;BME280;27971;53.902;9.118;2022-10-19T06:11:04;102892.0;;;22.0;30.04
41383;BME280;27971;53.902;9.118;2022-10-19T06:13:01;102891.00000000001;;;22.29;29.78
41383;BME280;27971;53.902;9.118;2022-10-19T06:15:07;102891.00000000001;;;21.83;30.17
41383;BME280;27971;53.902;9.118;2022-10-19T06:17:06;102892.0;;;21.98;30.1
41383;BME280;27971;53.902;9.118;2022-10-19T06:19:08;102891.00000000001;;;21.86;30.18
41383;BME280;27971;53.902;9.118;2022-10-19T06:21:12;102894.0;;;22.08;30.02
41383;BME280;27971;53.902;9.118;2022-10-19T06:23:14;102896.0;;;21.87;30.26
41383;BME280;27971;53.902;9.118;2022-10-19T06:25:17;102898.0;;;22.14;29.92
41383;BME280;27971;53.902;9.118;2022-10-19T06:27:19;102899.0;;;21.72;30.21
41383;BME280;27971;53.902;9.118;2022-10-19T06:29:21;102899.0;;;21.16;30.74
41383;BME280;27971;53.902;9.118;2022-10-19T06:31:24;102899.0;;;21.08;30.82
41383;BME280;27971;53.902;9.118;2022-10-19T06:33:27;102898.0;;;21.08;30.86
41383;BME280;27971;53.902;9.118;2022-10-19T06:35:29;102896.0;;;21.88;30.17
41383;BME280;27971;53.902;9.118;2022-10-19T06:37:32;102898.0;;;22.27;29.77
41383;BME280;27971;53.902;9.118;2022-10-19T06:39:35;102899.0;;;22.51;29.48
41383;BME280;27971;53.902;9.118;2022-10-19T06:41:37;102901.0;;;22.06;29.87
41383;BME280;27971;53.902;9.118;2022-10-19T06:43:39;102903.0;;;22.11;29.79
41383;BME280;27971;53.902;9.118;2022-10-19T06:45:42;102906.0;;;21.72;30.13
41383;BME280;27971;53.902;9.118;2022-10-19T06:47:44;102910.99999999999;;;22.14;29.86
41383;BME280;27971;53.902;9.118;2022-10-19T06:49:47;102915.00000000001;;;21.76;30.15
41383;BME280;27971;53.902;9.118;2022-10-19T06:51:51;102918.0;;;21.74;30.09
41383;BME280;27971;53.902;9.118;2022-10-19T06:53:54;102920.0;;;21.88;29.99
41383;BME280;27971;53.902;9.118;2022-10-19T06:55:56;102919.0;;;21.67;30.14
41383;BME280;27971;53.902;9.118;2022-10-19T06:57:59;102918.0;;;21.98;29.93
41383;BME280;27971;53.902;9.118;2022-10-19T07:00:02;102919.0;;;22.0;29.91
41383;BME280;27971;53.902;9.118;2022-10-19T07:02:05;102923.0;;;21.92;29.92
41383;BME280;27971;53.902;9.118;2022-10-19T07:04:07;102931.0;;;22.4;29.51
41383;BME280;27971;53.902;9.118;2022-10-19T07:06:11;102934.99999999999;;;21.76;30.05
41383;BME280;27971;53.902;9.118;2022-10-19T07:08:12;102934.99999999999;;;21.98;29.88
41383;BME280;27971;53.902;9.118;2022-10-19T07:10:15;102933.99999999999;;;22.09;29.78
41383;BME280;27971;53.902;9.118;2022-10-19T07:12:18;102934.99999999999;;;21.81;30.05
41383;BME280;27971;53.902;9.118;2022-10-19T07:14:21;102938.00000000001;;;21.92;29.98
41383;BME280;27971;53.902;9.118;2022-10-19T07:16:23;102941.00000000001;;;22.01;29.87
41383;BME280;27971;53.902;9.118;2022-10-19T07:18:26;102942.0;;;21.88;30.04
41383;BME280;27971;53.902;9.118;2022-10-19T07:20:29;102943.0;;;22.31;29.66
41383;BME280;27971;53.902;9.118;2022-10-19T07:22:31;102944.0;;;21.81;30.08
41383;BME280;27971;53.902;9.118;2022-10-19T07:24:34;102948.0;;;21.95;29.94
41383;BME280;27971;53.902;9.118;2022-10-19T07:26:37;102949.0;;;22.25;29.68
41383;BME280;27971;53.902;9.118;2022-10-19T07:28:41;102952.0;;;22.45;29.53
41383;BME280;27971;53.902;9.118;2022-10-19T07:30:42;102957.0;;;22.04;29.87
41383;BME280;27971;53.902;9.118;2022-10-19T07:32:45;102960.99999999999;;;22.2;29.68
41383;BME280;27971;53.902;9.118;2022-10-19T07:34:47;102965.00000000001;;;21.53;30.35
41383;BME280;27971;53.902;9.118;2022-10-19T07:36:50;102964.00000000001;;;21.77;30.13
41383;BME280;27971;53.902;9.118;2022-10-19T07:38:53;102963.00000000001;;;21.92;29.94
41383;BME280;27971;53.902;9.118;2022-10-19T07:41:04;102963.00000000001;;;21.99;29.88
41383;BME280;27971;53.902;9.118;2022-10-19T07:42:58;102964.00000000001;;;21.78;30.18
41383;BME280;27971;53.902;9.118;2022-10-19T07:45:01;102965.00000000001;;;21.55;30.3
41383;BME280;27971;53.902;9.118;2022-10-19T07:47:03;102966.00000000001;;;21.81;30.07
41383;BME280;27971;53.902;9.118;2022-10-19T07:49:08;102967.0;;;21.67;30.14
41383;BME280;27971;53.902;9.118;2022-10-19T07:51:10;102967.0;;;21.86;30.05
41383;BME280;27971;53.902;9.118;2022-10-19T07:53:11;102972.0;;;22.1;29.79
41383;BME280;27971;53.902;9.118;2022-10-19T07:55:14;102973.0;;;22.27;29.59
41383;BME280;27971;53.902;9.118;2022-10-19T07:57:17;102973.0;;;22.84;29.18
41383;BME280;27971;53.902;9.118;2022-10-19T07:59:19;102972.0;;;22.38;29.67
41383;BME280;27971;53.902;9.118;2022-10-19T08:01:23;102971.0;;;22.24;29.93
41383;BME280;27971;53.902;9.118;2022-10-19T08:03:25;102972.0;;;22.2;30.05
41383;BME280;27971;53.902;9.118;2022-10-19T08:05:27;102976.0;;;22.97;29.45
41383;BME280;27971;53.902;9.118;2022-10-19T08:07:32;102978.0;;;22.77;29.62
41383;BME280;27971;53.902;9.118;2022-10-19T08:09:33;102980.0;;;22.78;29.62
41383;BME280;27971;53.902;9.118;2022-10-19T08:11:36;102981.0;;;22.82;29.59
41383;BME280;27971;53.902;9.118;2022-10-19T08:13:39;102983.0;;;22.79;29.67
41383;BME280;27971;53.902;9.118;2022-10-19T08:15:41;102984.99999999999;;;22.86;29.62
41383;BME280;27971;53.902;9.118;2022-10-19T08:17:44;102984.99999999999;;;22.73;29.72
41383;BME280;27971;53.902;9.118;2022-10-19T08:19:46;102985.99999999999;;;22.76;29.75
41383;BME280;27971;53.902;9.118;2022-10-19T08:21:49;102985.99999999999;;;22.85;29.68
41383;BME280;27971;53.902;9.118;2022-10-19T08:23:52;102985.99999999999;;;22.99;29.54
41383;BME280;27971;53.902;9.118;2022-10-19T08:25:56;102985.99999999999;;;22.76;29.64
41383;BME280;27971;53.902;9.118;2022-10-19T08:27:58;102988.00000000001;;;22.99;29.47
41383;BME280;27971;53.902;9.118;2022-10-19T08:30:00;102989.00000000001;;;22.93;29.52
41383;BME280;27971;53.902;9.118;2022-10-19T08:32:03;102992.0;;;23.02;29.44
41383;BME280;27971;53.902;9.118;2022-10-19T08:34:06;102992.0;;;23.08;29.42
41383;BME280;27971;53.902;9.118;2022-10-19T08:36:10;102993.0;;;23.1;29.39
41383;BME280;27971;53.902;9.118;2022-10-19T08:38:11;102994.0;;;23.04;29.45
41383;BME280;27971;53.902;9.118;2022-10-19T08:40:18;102995.0;;;22.96;29.46
41383;BME280;27971;53.902;9.118;2022-10-19T08:42:19;102998.0;;;23.08;29.42
41383;BME280;27971;53.902;9.118;2022-10-19T08:44:34;102999.0;;;23.2;29.35
41383;BME280;27971;53.902;9.118;2022-10-19T08:46:25;102999.0;;;23.37;29.3
41383;BME280;27971;53.902;9.118;2022-10-19T08:48:28;102998.0;;;23.17;29.41
41383;BME280;27971;53.902;9.118;2022-10-19T08:50:35;103000.0;;;23.24;29.36
41383;BME280;27971;53.902;9.118;2022-10-19T08:52:33;103002.0;;;22.81;29.53
41383;BME280;27971;53.902;9.118;2022-10-19T08:54:42;103002.0;;;22.99;29.25
41383;BME280;27971;53.902;9.118;2022-10-19T08:56:41;103004.0;;;23.57;28.72
41383;BME280;27971;53.902;9.118;2022-10-19T08:58:49;103007.0;;;23.55;28.65
41383;BME280;27971;53.902;9.118;2022-10-19T09:00:47;103006.0;;;23.69;28.54
41383;BME280;27971;53.902;9.118;2022-10-19T09:02:53;103006.0;;;23.41;28.75
41383;BME280;27971;53.902;9.118;2022-10-19T09:04:54;103003.0;;;23.21;28.96
41383;BME280;27971;53.902;9.118;2022-10-19T09:07:17;103001.0;;;23.42;28.78
41383;BME280;27971;53.902;9.118;2022-10-19T09:08:56;103000.0;;;23.84;28.63
41383;BME280;27971;53.902;9.118;2022-10-19T09:10:56;102998.0;;;23.54;28.66
41383;BME280;27971;53.902;9.118;2022-10-19T09:13:01;102996.0;;;23.49;28.71
41383;BME280;27971;53.902;9.118;2022-10-19T09:15:05;102998.0;;;23.2;28.95
41383;BME280;27971;53.902;9.118;2022-10-19T09:17:11;102999.0;;;22.91;29.17
41383;BME280;27971;53.902;9.118;2022-10-19T09:19:14;103001.0;;;23.18;28.98
41383;BME280;27971;53.902;9.118;2022-10-19T09:21:13;103003.0;;;23.12;29.03
41383;BME280;27971;53.902;9.118;2022-10-19T09:23:20;103002.0;;;23.14;28.96
41383;BME280;27971;53.902;9.118;2022-10-19T09:25:19;103003.0;;;23.05;29.08
41383;BME280;27971;53.902;9.118;2022-10-19T09:27:22;103002.0;;;22.91;29.22
41383;BME280;27971;53.902;9.118;2022-10-19T09:29:27;103001.0;;;22.91;29.19
41383;BME280;27971;53.902;9.118;2022-10-19T09:31:30;102999.0;;;22.45;29.61
41383;BME280;27971;53.902;9.118;2022-10-19T09:33:34;103001.0;;;22.65;29.49
41383;BME280;27971;53.902;9.118;2022-10-19T09:35:36;103002.0;;;23.1;29.06
41383;BME280;27971;53.902;9.118;2022-10-19T09:37:40;103000.0;;;23.58;28.64
41383;BME280;27971;53.902;9.118;2022-10-19T09:39:37;103001.0;;;23.48;28.72
41383;BME280;27971;53.902;9.118;2022-10-19T09:41:43;103001.0;;;23.27;28.87
41383;BME280;27971;53.902;9.118;2022-10-19T09:43:46;103001.0;;;23.18;28.99
41383;BME280;27971;53.902;9.118;2022-10-19T09:45:50;103003.0;;;23.24;28.92
41383;BME280;27971;53.902;9.118;2022-10-19T09:47:48;103005.0;;;23.24;28.9
41383;BME280;27971;53.902;9.118;2022-10-19T09:50:06;103006.0;;;23.59;28.63
41383;BME280;27971;53.902;9.118;2022-10-19T09:51:54;103006.0;;;23.44;28.79
41383;BME280;27971;53.902;9.118;2022-10-19T09:53:56;103005.0;;;23.09;29.09
41383;BME280;27971;53.902;9.118;2022-10-19T09:56:03;103005.0;;;23.09;29.03
41383;BME280;27971;53.902;9.118;2022-10-19T09:58:05;103004.0;;;23.17;28.96
41383;BME280;27971;53.902;9.118;2022-10-19T10:00:08;103003.0;;;23.08;29.12
41383;BME280;27971;53.902;9.118;2022-10-19T10:02:15;103006.0;;;23.14;29.11
41383;BME280;27971;53.902;9.118;2022-10-19T10:04:14;103008.99999999999;;;22.99;29.18
41383;BME280;27971;53.902;9.118;2022-10-19T10:06:14;103011.99999999999;;;22.82;29.35
41383;BME280;27971;53.902;9.118;2022-10-19T10:08:17;103013.00000000001;;;23.09;29.1
41383;BME280;27971;53.902;9.118;2022-10-19T10:10:22;103014.00000000001;;;23.09;29.12
41383;BME280;27971;53.902;9.118;2022-10-19T10:12:21;103014.00000000001;;;22.58;29.55
41383;BME280;27971;53.902;9.118;2022-10-19T10:14:27;103013.00000000001;;;22.65;29.53
41383;BME280;27971;53.902;9.118;2022-10-19T10:16:28;103011.99999999999;;;22.27;29.88
41383;BME280;27971;53.902;9.118;2022-10-19T10:18:30;103011.99999999999;;;22.45;29.7
41383;BME280;27971;53.902;9.118;2022-10-19T10:20:33;103013.00000000001;;;22.46;29.73
41383;BME280;27971;53.902;9.118;2022-10-19T10:22:36;103011.99999999999;;;22.16;29.99
41383;BME280;27971;53.902;9.118;2022-10-19T10:24:50;103009.99999999999;;;22.44;29.67
41383;BME280;27971;53.902;9.118;2022-10-19T10:26:43;103008.0;;;23.01;29.23